sensor_id;sensor_type;location;lat;lon;timestamp;P1;durP1;ratioP1;P2;durP2;ratioP2
62353;SDS011;48391;49.184;2.418;2023-02-28T00:01:33;1.55;;;1.45;;
62353;SDS011;48391;49.184;2.418;2023-02-28T00:03:59;2.28;;;1.40;;
62353;SDS011;48391;49.184;2.418;2023-02-28T00:06:25;1.73;;;1.20;;
62353;SDS011;48391;49.184;2.418;2023-02-28T00:08:51;1.33;;;1.23;;
62353;SDS011;48391;49.184;2.418;2023-02-28T00:11:17;2.15;;;1.42;;
62353;SDS011;48391;49.184;2.418;2023-02-28T00:13:44;1.15;;;1.15;;
62353;SDS011;48391;49.184;2.418;2023-02-28T00:16:12;1.73;;;1.58;;
62353;SDS011;48391;49.184;2.418;2023-02-28T00:18:38;1.65;;;1.55;;
62353;SDS011;48391;49.184;2.418;2023-02-28T00:21:05;2.25;;;2.05;;
62353;SDS011;48391;49.184;2.418;2023-02-28T00:23:31;1.45;;;1.35;;
62353;SDS011;48391;49.184;2.418;2023-02-28T00:25:57;1.45;;;1.25;;
62353;SDS011;48391;49.184;2.418;2023-02-28T00:28:24;1.60;;;1.50;;
62353;SDS011;48391;49.184;2.418;2023-02-28T00:30:50;1.70;;;1.60;;
62353;SDS011;48391;49.184;2.418;2023-02-28T00:33:16;2.45;;;2.25;;
62353;SDS011;48391;49.184;2.418;2023-02-28T00:35:42;4.28;;;1.63;;
62353;SDS011;48391;49.184;2.418;2023-02-28T00:38:11;2.30;;;1.92;;
62353;SDS011;48391;49.184;2.418;2023-02-28T00:40:37;4.07;;;2.75;;
62353;SDS011;48391;49.184;2.418;2023-02-28T00:43:03;4.75;;;2.10;;
62353;SDS011;48391;49.184;2.418;2023-02-28T00:45:29;1.95;;;1.85;;
62353;SDS011;48391;49.184;2.418;2023-02-28T00:47:55;2.35;;;1.77;;
62353;SDS011;48391;49.184;2.418;2023-02-28T00:50:21;1.90;;;1.38;;
62353;SDS011;48391;49.184;2.418;2023-02-28T00:52:47;1.83;;;1.60;;
62353;SDS011;48391;49.184;2.418;2023-02-28T00:55:13;1.85;;;1.70;;
62353;SDS011;48391;49.184;2.418;2023-02-28T00:57:40;1.73;;;1.63;;
62353;SDS011;48391;49.184;2.418;2023-02-28T01:00:06;2.35;;;2.05;;
62353;SDS011;48391;49.184;2.418;2023-02-28T01:02:33;3.50;;;2.30;;
62353;SDS011;48391;49.184;2.418;2023-02-28T01:04:59;1.55;;;1.45;;
62353;SDS011;48391;49.184;2.418;2023-02-28T01:07:25;1.85;;;1.75;;
62353;SDS011;48391;49.184;2.418;2023-02-28T01:09:51;1.63;;;1.40;;
62353;SDS011;48391;49.184;2.418;2023-02-28T01:12:17;2.60;;;1.50;;
62353;SDS011;48391;49.184;2.418;2023-02-28T01:14:43;2.35;;;1.95;;
62353;SDS011;48391;49.184;2.418;2023-02-28T01:17:09;1.35;;;1.33;;
62353;SDS011;48391;49.184;2.418;2023-02-28T01:19:35;1.92;;;1.63;;
62353;SDS011;48391;49.184;2.418;2023-02-28T01:22:04;6.50;;;2.65;;
62353;SDS011;48391;49.184;2.418;2023-02-28T01:24:31;3.05;;;2.03;;
62353;SDS011;48391;49.184;2.418;2023-02-28T01:26:57;2.17;;;1.95;;
62353;SDS011;48391;49.184;2.418;2023-02-28T01:29:23;2.22;;;1.88;;
62353;SDS011;48391;49.184;2.418;2023-02-28T01:31:49;2.95;;;2.00;;
62353;SDS011;48391;49.184;2.418;2023-02-28T01:34:15;1.88;;;1.77;;
62353;SDS011;48391;49.184;2.418;2023-02-28T01:36:44;2.55;;;2.28;;
62353;SDS011;48391;49.184;2.418;2023-02-28T01:39:10;3.90;;;2.00;;
62353;SDS011;48391;49.184;2.418;2023-02-28T01:41:37;2.40;;;1.95;;
62353;SDS011;48391;49.184;2.418;2023-02-28T01:44:53;3.35;;;2.05;;
62353;SDS011;48391;49.184;2.418;2023-02-28T01:46:52;2.20;;;2.00;;
62353;SDS011;48391;49.184;2.418;2023-02-28T01:49:18;3.00;;;2.35;;
62353;SDS011;48391;49.184;2.418;2023-02-28T01:51:45;1.83;;;1.73;;
62353;SDS011;48391;49.184;2.418;2023-02-28T01:56:43;1.85;;;1.73;;
62353;SDS011;48391;49.184;2.418;2023-02-28T01:59:11;2.22;;;1.92;;
62353;SDS011;48391;49.184;2.418;2023-02-28T02:01:38;2.58;;;2.30;;
62353;SDS011;48391;49.184;2.418;2023-02-28T02:04:04;4.93;;;3.40;;
62353;SDS011;48391;49.184;2.418;2023-02-28T02:06:33;2.97;;;2.70;;
62353;SDS011;48391;49.184;2.418;2023-02-28T02:08:59;2.80;;;2.58;;
62353;SDS011;48391;49.184;2.418;2023-02-28T02:11:25;4.22;;;2.35;;
62353;SDS011;48391;49.184;2.418;2023-02-28T02:32:13;3.50;;;2.40;;
62353;SDS011;48391;49.184;2.418;2023-02-28T02:34:44;2.67;;;2.47;;
62353;SDS011;48391;49.184;2.418;2023-02-28T02:42:23;2.17;;;2.00;;
62353;SDS011;48391;49.184;2.418;2023-02-28T02:47:19;2.00;;;1.77;;
62353;SDS011;48391;49.184;2.418;2023-02-28T02:49:48;2.70;;;2.28;;
62353;SDS011;48391;49.184;2.418;2023-02-28T02:52:15;3.50;;;2.70;;
62353;SDS011;48391;49.184;2.418;2023-02-28T02:54:43;2.97;;;1.95;;
62353;SDS011;48391;49.184;2.418;2023-02-28T02:57:15;3.47;;;2.15;;
62353;SDS011;48391;49.184;2.418;2023-02-28T02:59:44;2.53;;;2.00;;
62353;SDS011;48391;49.184;2.418;2023-02-28T03:02:12;3.22;;;2.70;;
62353;SDS011;48391;49.184;2.418;2023-02-28T03:04:42;1.75;;;1.65;;
62353;SDS011;48391;49.184;2.418;2023-02-28T03:07:09;4.55;;;2.80;;
62353;SDS011;48391;49.184;2.418;2023-02-28T03:09:35;2.28;;;2.05;;
62353;SDS011;48391;49.184;2.418;2023-02-28T03:12:01;3.78;;;3.45;;
62353;SDS011;48391;49.184;2.418;2023-02-28T03:27:16;2.88;;;2.28;;
62353;SDS011;48391;49.184;2.418;2023-02-28T03:29:46;5.35;;;3.83;;
62353;SDS011;48391;49.184;2.418;2023-02-28T03:32:48;5.25;;;4.15;;
62353;SDS011;48391;49.184;2.418;2023-02-28T03:35:08;4.45;;;3.92;;
62353;SDS011;48391;49.184;2.418;2023-02-28T03:37:35;7.97;;;5.07;;
62353;SDS011;48391;49.184;2.418;2023-02-28T03:40:05;4.97;;;4.15;;
62353;SDS011;48391;49.184;2.418;2023-02-28T03:42:34;4.82;;;4.00;;
62353;SDS011;48391;49.184;2.418;2023-02-28T03:45:02;4.60;;;3.80;;
62353;SDS011;48391;49.184;2.418;2023-02-28T03:47:33;7.07;;;3.35;;
62353;SDS011;48391;49.184;2.418;2023-02-28T03:50:36;3.92;;;2.95;;
62353;SDS011;48391;49.184;2.418;2023-02-28T03:52:57;3.65;;;3.35;;
62353;SDS011;48391;49.184;2.418;2023-02-28T03:55:26;3.97;;;3.53;;
62353;SDS011;48391;49.184;2.418;2023-02-28T04:00:25;3.92;;;3.13;;
62353;SDS011;48391;49.184;2.418;2023-02-28T04:02:53;2.58;;;2.38;;
62353;SDS011;48391;49.184;2.418;2023-02-28T04:05:20;3.03;;;2.80;;
62353;SDS011;48391;49.184;2.418;2023-02-28T04:07:46;3.05;;;2.78;;
62353;SDS011;48391;49.184;2.418;2023-02-28T04:10:13;3.67;;;3.10;;
62353;SDS011;48391;49.184;2.418;2023-02-28T04:12:40;4.00;;;3.42;;
62353;SDS011;48391;49.184;2.418;2023-02-28T04:15:06;5.47;;;4.07;;
62353;SDS011;48391;49.184;2.418;2023-02-28T04:17:32;4.72;;;3.78;;
62353;SDS011;48391;49.184;2.418;2023-02-28T04:19:58;3.97;;;3.60;;
62353;SDS011;48391;49.184;2.418;2023-02-28T04:22:24;6.03;;;5.15;;
62353;SDS011;48391;49.184;2.418;2023-02-28T04:24:51;5.97;;;4.05;;
62353;SDS011;48391;49.184;2.418;2023-02-28T04:27:19;7.90;;;5.20;;
62353;SDS011;48391;49.184;2.418;2023-02-28T04:29:45;6.72;;;4.57;;
62353;SDS011;48391;49.184;2.418;2023-02-28T04:32:11;4.75;;;3.55;;
62353;SDS011;48391;49.184;2.418;2023-02-28T04:34:37;6.00;;;3.95;;
62353;SDS011;48391;49.184;2.418;2023-02-28T04:37:03;3.95;;;3.38;;
62353;SDS011;48391;49.184;2.418;2023-02-28T04:39:29;3.03;;;2.67;;
62353;SDS011;48391;49.184;2.418;2023-02-28T04:41:55;3.80;;;3.20;;
62353;SDS011;48391;49.184;2.418;2023-02-28T04:44:22;5.25;;;3.58;;
62353;SDS011;48391;49.184;2.418;2023-02-28T04:46:48;2.83;;;2.50;;
62353;SDS011;48391;49.184;2.418;2023-02-28T04:49:15;3.13;;;2.63;;
62353;SDS011;48391;49.184;2.418;2023-02-28T04:51:41;3.03;;;2.83;;
62353;SDS011;48391;49.184;2.418;2023-02-28T04:54:07;3.17;;;2.50;;
62353;SDS011;48391;49.184;2.418;2023-02-28T04:56:33;4.45;;;3.03;;
62353;SDS011;48391;49.184;2.418;2023-02-28T04:58:59;3.47;;;2.80;;
62353;SDS011;48391;49.184;2.418;2023-02-28T05:01:29;3.33;;;2.55;;
62353;SDS011;48391;49.184;2.418;2023-02-28T05:03:57;3.22;;;2.92;;
62353;SDS011;48391;49.184;2.418;2023-02-28T05:06:25;2.80;;;2.33;;
62353;SDS011;48391;49.184;2.418;2023-02-28T05:08:52;3.05;;;2.72;;
62353;SDS011;48391;49.184;2.418;2023-02-28T05:11:25;2.60;;;2.40;;
62353;SDS011;48391;49.184;2.418;2023-02-28T05:13:52;3.63;;;2.85;;
62353;SDS011;48391;49.184;2.418;2023-02-28T05:16:19;3.05;;;2.75;;
62353;SDS011;48391;49.184;2.418;2023-02-28T05:18:45;3.33;;;2.60;;
62353;SDS011;48391;49.184;2.418;2023-02-28T05:21:54;4.53;;;3.00;;
62353;SDS011;48391;49.184;2.418;2023-02-28T05:24:02;2.92;;;2.55;;
62353;SDS011;48391;49.184;2.418;2023-02-28T05:26:29;4.55;;;3.50;;
62353;SDS011;48391;49.184;2.418;2023-02-28T05:28:55;4.80;;;3.47;;
62353;SDS011;48391;49.184;2.418;2023-02-28T05:31:22;4.65;;;3.25;;
62353;SDS011;48391;49.184;2.418;2023-02-28T05:33:48;8.63;;;4.97;;
62353;SDS011;48391;49.184;2.418;2023-02-28T05:36:14;6.13;;;4.50;;
62353;SDS011;48391;49.184;2.418;2023-02-28T05:38:40;4.40;;;4.00;;
62353;SDS011;48391;49.184;2.418;2023-02-28T05:41:07;7.05;;;6.20;;
62353;SDS011;48391;49.184;2.418;2023-02-28T05:43:34;7.10;;;5.07;;
62353;SDS011;48391;49.184;2.418;2023-02-28T05:46:04;5.75;;;5.00;;
62353;SDS011;48391;49.184;2.418;2023-02-28T05:48:30;7.88;;;5.30;;
62353;SDS011;48391;49.184;2.418;2023-02-28T05:50:57;5.20;;;4.07;;
62353;SDS011;48391;49.184;2.418;2023-02-28T05:53:23;4.50;;;3.80;;
62353;SDS011;48391;49.184;2.418;2023-02-28T05:55:49;8.82;;;4.63;;
62353;SDS011;48391;49.184;2.418;2023-02-28T05:58:15;7.00;;;5.20;;
62353;SDS011;48391;49.184;2.418;2023-02-28T06:00:41;6.35;;;4.53;;
62353;SDS011;48391;49.184;2.418;2023-02-28T06:03:07;9.73;;;4.22;;
62353;SDS011;48391;49.184;2.418;2023-02-28T06:05:33;6.32;;;3.72;;
62353;SDS011;48391;49.184;2.418;2023-02-28T06:07:59;4.22;;;3.58;;
62353;SDS011;48391;49.184;2.418;2023-02-28T06:10:25;5.82;;;3.70;;
62353;SDS011;48391;49.184;2.418;2023-02-28T06:12:51;6.97;;;4.47;;
62353;SDS011;48391;49.184;2.418;2023-02-28T06:15:17;9.20;;;4.85;;
62353;SDS011;48391;49.184;2.418;2023-02-28T06:17:44;8.13;;;5.60;;
62353;SDS011;48391;49.184;2.418;2023-02-28T06:20:11;6.95;;;4.88;;
62353;SDS011;48391;49.184;2.418;2023-02-28T06:22:40;4.30;;;3.90;;
62353;SDS011;48391;49.184;2.418;2023-02-28T06:25:06;4.53;;;3.97;;
62353;SDS011;48391;49.184;2.418;2023-02-28T06:27:33;6.93;;;4.18;;
62353;SDS011;48391;49.184;2.418;2023-02-28T06:29:59;6.07;;;4.00;;
62353;SDS011;48391;49.184;2.418;2023-02-28T06:32:25;6.78;;;4.80;;
62353;SDS011;48391;49.184;2.418;2023-02-28T06:34:51;7.47;;;5.68;;
62353;SDS011;48391;49.184;2.418;2023-02-28T06:37:18;8.90;;;5.70;;
62353;SDS011;48391;49.184;2.418;2023-02-28T06:39:44;7.07;;;5.75;;
62353;SDS011;48391;49.184;2.418;2023-02-28T06:42:10;6.68;;;5.55;;
62353;SDS011;48391;49.184;2.418;2023-02-28T06:44:36;6.68;;;4.57;;
62353;SDS011;48391;49.184;2.418;2023-02-28T06:47:03;5.43;;;4.38;;
62353;SDS011;48391;49.184;2.418;2023-02-28T06:49:33;5.97;;;4.57;;
62353;SDS011;48391;49.184;2.418;2023-02-28T06:51:59;5.80;;;4.13;;
62353;SDS011;48391;49.184;2.418;2023-02-28T06:54:25;6.90;;;3.97;;
62353;SDS011;48391;49.184;2.418;2023-02-28T06:56:52;6.53;;;5.05;;
62353;SDS011;48391;49.184;2.418;2023-02-28T06:59:19;4.82;;;3.88;;
62353;SDS011;48391;49.184;2.418;2023-02-28T07:01:45;4.78;;;3.78;;
62353;SDS011;48391;49.184;2.418;2023-02-28T07:04:12;4.80;;;3.25;;
62353;SDS011;48391;49.184;2.418;2023-02-28T07:06:38;4.78;;;3.83;;
62353;SDS011;48391;49.184;2.418;2023-02-28T07:09:04;4.90;;;3.63;;
62353;SDS011;48391;49.184;2.418;2023-02-28T07:11:30;5.43;;;3.50;;
62353;SDS011;48391;49.184;2.418;2023-02-28T07:13:56;4.32;;;3.80;;
62353;SDS011;48391;49.184;2.418;2023-02-28T07:16:23;6.22;;;4.15;;
62353;SDS011;48391;49.184;2.418;2023-02-28T07:18:51;5.55;;;4.10;;
62353;SDS011;48391;49.184;2.418;2023-02-28T07:21:17;7.25;;;4.25;;
62353;SDS011;48391;49.184;2.418;2023-02-28T07:23:43;6.95;;;4.38;;
62353;SDS011;48391;49.184;2.418;2023-02-28T07:26:13;4.22;;;3.78;;
62353;SDS011;48391;49.184;2.418;2023-02-28T07:28:44;8.95;;;6.28;;
62353;SDS011;48391;49.184;2.418;2023-02-28T07:31:10;8.23;;;6.15;;
62353;SDS011;48391;49.184;2.418;2023-02-28T07:33:38;6.38;;;4.85;;
62353;SDS011;48391;49.184;2.418;2023-02-28T07:36:06;9.85;;;7.00;;
62353;SDS011;48391;49.184;2.418;2023-02-28T07:38:35;15.35;;;8.68;;
62353;SDS011;48391;49.184;2.418;2023-02-28T07:41:02;10.02;;;7.85;;
62353;SDS011;48391;49.184;2.418;2023-02-28T07:43:32;16.83;;;11.10;;
62353;SDS011;48391;49.184;2.418;2023-02-28T07:46:05;16.55;;;10.18;;
62353;SDS011;48391;49.184;2.418;2023-02-28T07:48:31;14.52;;;9.10;;
62353;SDS011;48391;49.184;2.418;2023-02-28T07:50:57;14.93;;;10.25;;
62353;SDS011;48391;49.184;2.418;2023-02-28T07:53:24;13.05;;;8.77;;
62353;SDS011;48391;49.184;2.418;2023-02-28T07:55:50;13.77;;;9.82;;
62353;SDS011;48391;49.184;2.418;2023-02-28T07:58:19;16.40;;;11.20;;
62353;SDS011;48391;49.184;2.418;2023-02-28T08:00:45;14.00;;;10.68;;
62353;SDS011;48391;49.184;2.418;2023-02-28T08:03:12;15.95;;;9.70;;
62353;SDS011;48391;49.184;2.418;2023-02-28T08:05:39;12.95;;;8.88;;
62353;SDS011;48391;49.184;2.418;2023-02-28T08:08:05;15.05;;;10.75;;
62353;SDS011;48391;49.184;2.418;2023-02-28T08:10:31;14.23;;;10.55;;
62353;SDS011;48391;49.184;2.418;2023-02-28T08:12:57;15.48;;;10.32;;
62353;SDS011;48391;49.184;2.418;2023-02-28T08:15:23;13.95;;;9.00;;
62353;SDS011;48391;49.184;2.418;2023-02-28T08:17:49;13.25;;;9.55;;
62353;SDS011;48391;49.184;2.418;2023-02-28T08:20:15;13.85;;;10.48;;
62353;SDS011;48391;49.184;2.418;2023-02-28T08:22:41;14.43;;;10.68;;
62353;SDS011;48391;49.184;2.418;2023-02-28T08:25:08;15.55;;;9.10;;
62353;SDS011;48391;49.184;2.418;2023-02-28T08:27:34;14.07;;;10.23;;
62353;SDS011;48391;49.184;2.418;2023-02-28T08:30:00;13.88;;;10.18;;
62353;SDS011;48391;49.184;2.418;2023-02-28T08:32:26;17.08;;;9.65;;
62353;SDS011;48391;49.184;2.418;2023-02-28T08:34:52;12.23;;;9.07;;
62353;SDS011;48391;49.184;2.418;2023-02-28T08:37:18;24.42;;;10.80;;
62353;SDS011;48391;49.184;2.418;2023-02-28T08:39:45;12.25;;;8.27;;
62353;SDS011;48391;49.184;2.418;2023-02-28T08:42:11;9.38;;;7.75;;
62353;SDS011;48391;49.184;2.418;2023-02-28T08:44:37;16.35;;;10.77;;
62353;SDS011;48391;49.184;2.418;2023-02-28T08:47:03;14.73;;;9.30;;
62353;SDS011;48391;49.184;2.418;2023-02-28T08:49:29;12.25;;;9.25;;
62353;SDS011;48391;49.184;2.418;2023-02-28T08:51:55;10.10;;;8.45;;
62353;SDS011;48391;49.184;2.418;2023-02-28T08:54:22;15.75;;;8.90;;
62353;SDS011;48391;49.184;2.418;2023-02-28T08:56:48;14.48;;;8.88;;
62353;SDS011;48391;49.184;2.418;2023-02-28T08:59:14;13.18;;;8.98;;
62353;SDS011;48391;49.184;2.418;2023-02-28T09:01:40;10.85;;;7.95;;
62353;SDS011;48391;49.184;2.418;2023-02-28T09:04:06;9.88;;;8.45;;
62353;SDS011;48391;49.184;2.418;2023-02-28T09:06:34;11.98;;;8.60;;
62353;SDS011;48391;49.184;2.418;2023-02-28T09:09:00;16.30;;;9.40;;
62353;SDS011;48391;49.184;2.418;2023-02-28T09:11:28;14.32;;;9.05;;
62353;SDS011;48391;49.184;2.418;2023-02-28T09:13:54;10.75;;;8.13;;
62353;SDS011;48391;49.184;2.418;2023-02-28T09:16:20;13.43;;;9.18;;
62353;SDS011;48391;49.184;2.418;2023-02-28T09:18:47;12.07;;;9.13;;
62353;SDS011;48391;49.184;2.418;2023-02-28T09:21:14;12.60;;;8.55;;
62353;SDS011;48391;49.184;2.418;2023-02-28T09:23:41;15.13;;;8.88;;
62353;SDS011;48391;49.184;2.418;2023-02-28T09:26:07;10.98;;;7.50;;
62353;SDS011;48391;49.184;2.418;2023-02-28T09:28:33;14.35;;;8.27;;
62353;SDS011;48391;49.184;2.418;2023-02-28T09:31:00;10.50;;;7.80;;
62353;SDS011;48391;49.184;2.418;2023-02-28T09:33:26;8.48;;;7.38;;
62353;SDS011;48391;49.184;2.418;2023-02-28T09:35:57;11.35;;;8.35;;
62353;SDS011;48391;49.184;2.418;2023-02-28T09:38:23;10.63;;;7.05;;
62353;SDS011;48391;49.184;2.418;2023-02-28T09:43:15;9.27;;;6.47;;
62353;SDS011;48391;49.184;2.418;2023-02-28T09:45:42;9.50;;;6.88;;
62353;SDS011;48391;49.184;2.418;2023-02-28T09:50:41;7.70;;;5.72;;
62353;SDS011;48391;49.184;2.418;2023-02-28T09:53:19;8.52;;;6.72;;
62353;SDS011;48391;49.184;2.418;2023-02-28T09:55:47;7.50;;;6.00;;
62353;SDS011;48391;49.184;2.418;2023-02-28T09:58:19;8.35;;;5.72;;
62353;SDS011;48391;49.184;2.418;2023-02-28T10:00:46;7.65;;;4.68;;
62353;SDS011;48391;49.184;2.418;2023-02-28T10:03:30;7.53;;;5.28;;
62353;SDS011;48391;49.184;2.418;2023-02-28T10:10:51;9.10;;;4.90;;
62353;SDS011;48391;49.184;2.418;2023-02-28T10:15:47;6.38;;;4.25;;
62353;SDS011;48391;49.184;2.418;2023-02-28T10:18:17;5.43;;;4.13;;
62353;SDS011;48391;49.184;2.418;2023-02-28T10:20:44;4.75;;;4.20;;
62353;SDS011;48391;49.184;2.418;2023-02-28T10:23:20;5.65;;;4.45;;
62353;SDS011;48391;49.184;2.418;2023-02-28T10:25:53;5.38;;;3.10;;
62353;SDS011;48391;49.184;2.418;2023-02-28T10:28:20;6.93;;;3.63;;
62353;SDS011;48391;49.184;2.418;2023-02-28T10:30:47;3.30;;;2.97;;
62353;SDS011;48391;49.184;2.418;2023-02-28T10:33:24;3.28;;;2.83;;
62353;SDS011;48391;49.184;2.418;2023-02-28T10:35:51;4.38;;;3.25;;
62353;SDS011;48391;49.184;2.418;2023-02-28T10:38:24;5.97;;;2.90;;
62353;SDS011;48391;49.184;2.418;2023-02-28T10:40:50;4.53;;;3.08;;
62353;SDS011;48391;49.184;2.418;2023-02-28T10:45:59;4.05;;;3.17;;
62353;SDS011;48391;49.184;2.418;2023-02-28T10:48:40;3.33;;;3.00;;
62353;SDS011;48391;49.184;2.418;2023-02-28T10:51:10;2.97;;;2.63;;
62353;SDS011;48391;49.184;2.418;2023-02-28T10:53:38;3.10;;;2.70;;
62353;SDS011;48391;49.184;2.418;2023-02-28T11:01:23;5.35;;;3.05;;
62353;SDS011;48391;49.184;2.418;2023-02-28T11:03:50;3.72;;;2.95;;
62353;SDS011;48391;49.184;2.418;2023-02-28T11:06:30;3.83;;;2.08;;
62353;SDS011;48391;49.184;2.418;2023-02-28T11:09:00;2.10;;;2.00;;
62353;SDS011;48391;49.184;2.418;2023-02-28T11:11:29;3.40;;;1.95;;
62353;SDS011;48391;49.184;2.418;2023-02-28T11:13:57;3.13;;;1.60;;
62353;SDS011;48391;49.184;2.418;2023-02-28T11:16:31;1.98;;;1.80;;
62353;SDS011;48391;49.184;2.418;2023-02-28T11:18:57;3.42;;;2.35;;
62353;SDS011;48391;49.184;2.418;2023-02-28T11:21:26;2.40;;;1.70;;
62353;SDS011;48391;49.184;2.418;2023-02-28T11:23:56;2.22;;;1.88;;
62353;SDS011;48391;49.184;2.418;2023-02-28T11:26:35;3.55;;;3.08;;
62353;SDS011;48391;49.184;2.418;2023-02-28T11:29:03;2.47;;;2.30;;
62353;SDS011;48391;49.184;2.418;2023-02-28T11:31:32;2.17;;;2.03;;
62353;SDS011;48391;49.184;2.418;2023-02-28T11:33:58;2.20;;;2.00;;
62353;SDS011;48391;49.184;2.418;2023-02-28T11:36:28;3.05;;;1.95;;
62353;SDS011;48391;49.184;2.418;2023-02-28T11:39:03;4.65;;;2.60;;
62353;SDS011;48391;49.184;2.418;2023-02-28T11:46:33;3.47;;;2.97;;
62353;SDS011;48391;49.184;2.418;2023-02-28T11:51:59;3.00;;;2.80;;
62353;SDS011;48391;49.184;2.418;2023-02-28T12:17:55;5.72;;;4.55;;
62353;SDS011;48391;49.184;2.418;2023-02-28T12:22:54;4.13;;;3.25;;
62353;SDS011;48391;49.184;2.418;2023-02-28T12:27:50;2.65;;;2.42;;
62353;SDS011;48391;49.184;2.418;2023-02-28T12:32:47;7.15;;;2.60;;
62353;SDS011;48391;49.184;2.418;2023-02-28T12:35:16;2.15;;;2.03;;
62353;SDS011;48391;49.184;2.418;2023-02-28T12:37:51;1.58;;;1.48;;
62353;SDS011;48391;49.184;2.418;2023-02-28T12:40:21;3.28;;;2.90;;
62353;SDS011;48391;49.184;2.418;2023-02-28T12:42:59;2.75;;;2.20;;
62353;SDS011;48391;49.184;2.418;2023-02-28T12:45:46;3.00;;;2.78;;
62353;SDS011;48391;49.184;2.418;2023-02-28T12:48:39;2.58;;;2.38;;
62353;SDS011;48391;49.184;2.418;2023-02-28T12:51:02;3.58;;;2.58;;
62353;SDS011;48391;49.184;2.418;2023-02-28T12:56:02;2.25;;;1.73;;
62353;SDS011;48391;49.184;2.418;2023-02-28T13:06:45;2.92;;;2.20;;
62353;SDS011;48391;49.184;2.418;2023-02-28T13:09:16;2.90;;;2.50;;
62353;SDS011;48391;49.184;2.418;2023-02-28T13:11:47;2.00;;;1.80;;
62353;SDS011;48391;49.184;2.418;2023-02-28T13:14:23;2.83;;;2.63;;
62353;SDS011;48391;49.184;2.418;2023-02-28T13:17:10;1.80;;;1.60;;
62353;SDS011;48391;49.184;2.418;2023-02-28T13:22:03;2.05;;;1.95;;
62353;SDS011;48391;49.184;2.418;2023-02-28T13:24:43;2.35;;;2.13;;
62353;SDS011;48391;49.184;2.418;2023-02-28T13:27:11;2.58;;;2.05;;
62353;SDS011;48391;49.184;2.418;2023-02-28T13:29:41;2.92;;;2.20;;
62353;SDS011;48391;49.184;2.418;2023-02-28T13:34:33;1.77;;;1.35;;
62353;SDS011;48391;49.184;2.418;2023-02-28T13:42:46;2.05;;;1.90;;
62353;SDS011;48391;49.184;2.418;2023-02-28T13:45:24;2.63;;;2.42;;
62353;SDS011;48391;49.184;2.418;2023-02-28T13:47:51;2.13;;;1.63;;
62353;SDS011;48391;49.184;2.418;2023-02-28T14:05:39;2.25;;;2.05;;
62353;SDS011;48391;49.184;2.418;2023-02-28T14:10:34;3.60;;;3.25;;
62353;SDS011;48391;49.184;2.418;2023-02-28T14:13:02;2.47;;;2.30;;
62353;SDS011;48391;49.184;2.418;2023-02-28T14:18:06;2.42;;;2.22;;
62353;SDS011;48391;49.184;2.418;2023-02-28T14:20:39;2.35;;;2.15;;
62353;SDS011;48391;49.184;2.418;2023-02-28T14:25:45;2.10;;;2.00;;
62353;SDS011;48391;49.184;2.418;2023-02-28T14:30:56;3.53;;;2.00;;
62353;SDS011;48391;49.184;2.418;2023-02-28T14:33:27;2.45;;;2.35;;
62353;SDS011;48391;49.184;2.418;2023-02-28T14:36:03;2.60;;;2.50;;
62353;SDS011;48391;49.184;2.418;2023-02-28T14:38:35;3.95;;;2.03;;
62353;SDS011;48391;49.184;2.418;2023-02-28T14:41:04;2.53;;;2.33;;
62353;SDS011;48391;49.184;2.418;2023-02-28T14:43:31;2.15;;;2.05;;
62353;SDS011;48391;49.184;2.418;2023-02-28T14:46:01;2.90;;;2.40;;
62353;SDS011;48391;49.184;2.418;2023-02-28T14:48:27;3.63;;;2.38;;
62353;SDS011;48391;49.184;2.418;2023-02-28T14:50:55;1.30;;;1.25;;
62353;SDS011;48391;49.184;2.418;2023-02-28T14:53:22;2.75;;;2.22;;
62353;SDS011;48391;49.184;2.418;2023-02-28T14:55:48;2.75;;;2.30;;
62353;SDS011;48391;49.184;2.418;2023-02-28T14:58:25;1.85;;;1.73;;
62353;SDS011;48391;49.184;2.418;2023-02-28T15:00:53;2.00;;;1.90;;
62353;SDS011;48391;49.184;2.418;2023-02-28T15:06:01;2.10;;;2.00;;
62353;SDS011;48391;49.184;2.418;2023-02-28T15:08:27;2.38;;;2.00;;
62353;SDS011;48391;49.184;2.418;2023-02-28T15:13:23;1.17;;;1.17;;
62353;SDS011;48391;49.184;2.418;2023-02-28T15:15:59;1.65;;;1.55;;
62353;SDS011;48391;49.184;2.418;2023-02-28T15:20:59;1.63;;;1.40;;
62353;SDS011;48391;49.184;2.418;2023-02-28T15:23:28;2.67;;;2.28;;
62353;SDS011;48391;49.184;2.418;2023-02-28T15:25:54;2.22;;;2.03;;
62353;SDS011;48391;49.184;2.418;2023-02-28T15:28:21;2.75;;;2.42;;
62353;SDS011;48391;49.184;2.418;2023-02-28T15:30:53;3.20;;;2.90;;
62353;SDS011;48391;49.184;2.418;2023-02-28T15:33:21;3.70;;;2.92;;
62353;SDS011;48391;49.184;2.418;2023-02-28T15:35:47;2.20;;;2.03;;
62353;SDS011;48391;49.184;2.418;2023-02-28T15:38:26;2.35;;;2.17;;
62353;SDS011;48391;49.184;2.418;2023-02-28T15:40:56;2.33;;;1.75;;
62353;SDS011;48391;49.184;2.418;2023-02-28T15:43:26;2.13;;;2.03;;
62353;SDS011;48391;49.184;2.418;2023-02-28T15:45:57;2.80;;;2.10;;
62353;SDS011;48391;49.184;2.418;2023-02-28T15:48:28;2.90;;;1.83;;
62353;SDS011;48391;49.184;2.418;2023-02-28T15:51:02;1.88;;;1.75;;
62353;SDS011;48391;49.184;2.418;2023-02-28T15:53:47;2.05;;;1.95;;
62353;SDS011;48391;49.184;2.418;2023-02-28T15:56:24;1.77;;;1.67;;
62353;SDS011;48391;49.184;2.418;2023-02-28T15:58:57;2.10;;;1.95;;
62353;SDS011;48391;49.184;2.418;2023-02-28T16:01:25;3.90;;;2.58;;
62353;SDS011;48391;49.184;2.418;2023-02-28T16:03:53;2.30;;;2.03;;
62353;SDS011;48391;49.184;2.418;2023-02-28T16:08:49;1.88;;;1.40;;
62353;SDS011;48391;49.184;2.418;2023-02-28T16:11:16;2.75;;;2.17;;
62353;SDS011;48391;49.184;2.418;2023-02-28T16:13:42;2.15;;;1.77;;
62353;SDS011;48391;49.184;2.418;2023-02-28T16:16:08;3.80;;;1.63;;
62353;SDS011;48391;49.184;2.418;2023-02-28T16:18:40;1.75;;;1.65;;
62353;SDS011;48391;49.184;2.418;2023-02-28T16:21:06;2.70;;;2.00;;
62353;SDS011;48391;49.184;2.418;2023-02-28T16:23:32;1.63;;;1.52;;
62353;SDS011;48391;49.184;2.418;2023-02-28T16:25:58;1.67;;;1.35;;
62353;SDS011;48391;49.184;2.418;2023-02-28T16:28:25;1.85;;;1.75;;
62353;SDS011;48391;49.184;2.418;2023-02-28T16:30:55;2.22;;;1.98;;
62353;SDS011;48391;49.184;2.418;2023-02-28T16:33:21;3.00;;;2.47;;
62353;SDS011;48391;49.184;2.418;2023-02-28T16:35:47;4.28;;;3.10;;
62353;SDS011;48391;49.184;2.418;2023-02-28T16:38:13;1.60;;;1.50;;
62353;SDS011;48391;49.184;2.418;2023-02-28T16:40:39;2.13;;;1.92;;
62353;SDS011;48391;49.184;2.418;2023-02-28T16:43:10;2.17;;;1.98;;
62353;SDS011;48391;49.184;2.418;2023-02-28T16:45:39;1.98;;;1.85;;
62353;SDS011;48391;49.184;2.418;2023-02-28T16:48:05;2.53;;;2.33;;
62353;SDS011;48391;49.184;2.418;2023-02-28T16:50:31;3.42;;;2.28;;
62353;SDS011;48391;49.184;2.418;2023-02-28T16:52:57;2.40;;;2.15;;
62353;SDS011;48391;49.184;2.418;2023-02-28T16:55:24;3.53;;;1.90;;
62353;SDS011;48391;49.184;2.418;2023-02-28T16:57:52;3.08;;;2.72;;
62353;SDS011;48391;49.184;2.418;2023-02-28T17:00:18;3.35;;;2.97;;
62353;SDS011;48391;49.184;2.418;2023-02-28T17:02:44;3.45;;;2.42;;
62353;SDS011;48391;49.184;2.418;2023-02-28T17:05:11;3.35;;;2.00;;
62353;SDS011;48391;49.184;2.418;2023-02-28T17:07:38;2.15;;;1.98;;
62353;SDS011;48391;49.184;2.418;2023-02-28T17:10:17;1.70;;;1.42;;
62353;SDS011;48391;49.184;2.418;2023-02-28T17:12:44;2.25;;;2.05;;
62353;SDS011;48391;49.184;2.418;2023-02-28T17:15:10;1.83;;;1.70;;
62353;SDS011;48391;49.184;2.418;2023-02-28T17:17:37;1.83;;;1.65;;
62353;SDS011;48391;49.184;2.418;2023-02-28T17:20:03;2.63;;;1.92;;
62353;SDS011;48391;49.184;2.418;2023-02-28T17:22:30;5.85;;;2.30;;
62353;SDS011;48391;49.184;2.418;2023-02-28T17:24:56;2.35;;;2.25;;
62353;SDS011;48391;49.184;2.418;2023-02-28T17:27:23;1.83;;;1.67;;
62353;SDS011;48391;49.184;2.418;2023-02-28T17:29:50;2.03;;;1.83;;
62353;SDS011;48391;49.184;2.418;2023-02-28T17:32:16;1.80;;;1.67;;